Weather observations for the past three days for
Lawrenceville/Brunswick Municipal Airport
Imperial (Metric)
Date Time (edt) Wind (mph) Vis. (mi.) Weather Sky Cond. Temperature (ºF) Relative Humidity Wind Chill (°F) Heat Index (°F) Pressure Precipitation (in)
Air Dwpt 6 hour altimeter (in) sea level (mb) 1 hr 3 hr 6 hr
Max. Min.
02 09:15 Calm 10.00 Fair CLR 85.1 71.8 64% 91 30.07 0.0
02 08:55 Calm 10.00 Fair CLR 83.1 72.9 71% 89 30.07 0.0
02 08:35 Calm 10.00 Fair CLR 81.3 72.5 75% 86 30.07 0.0
02 08:15 NW 3 10.00 Fair CLR 79.3 72.3 79% 83 30.07 0.0
02 07:55 Calm 10.00 Fair CLR 77.9 71.2 77.9 72.5 80% 80 30.07 0.0
02 07:35 Calm 10.00 Fair CLR 74.7 72 91% 30.07 0.0
02 07:15 Calm 10.00 Fair CLR 73.4 71.1 92% 30.07 0.0
02 06:55 Calm 10.00 Fair CLR 73.6 71.2 92% 30.06 0.0
02 06:35 Calm 10.00 Fair CLR 73.4 70.9 92% 30.06 0.0
02 06:15 Calm 7.00 Fair CLR 72.5 70 92% 30.05 0.0
02 05:55 Calm 10.00 Fair CLR 73.6 71.1 92% 30.05 0.0
02 05:35 Calm 10.00 Fair CLR 73.8 71.2 92% 30.04 0.0
02 05:15 Calm 10.00 Fair CLR 73.4 70.9 92% 30.04 0.0
02 04:55 Calm 10.00 Fair CLR 73.6 71.1 92% 30.04 0.0
02 04:35 Calm 10.00 Fair CLR 74.8 71.2 89% 30.04 0.0
02 04:15 Calm 10.00 Fair CLR 75 71.6 89% 74 30.04 0.0
02 03:55 Calm 10.00 Fair CLR 75.2 71.6 89% 75 30.04 0.0
02 03:35 Calm 10.00 Fair CLR 75 71.6 89% 74 30.04 0.0
02 03:15 Calm 10.00 Fair CLR 74.8 71.4 89% 30.04 0.0
02 02:55 Calm 10.00 Fair CLR 75 70.9 87% 75 30.04 0.0
02 02:35 Calm 10.00 Fair CLR 76.3 71.8 86% 77 30.04 0.0
02 02:15 Calm 10.00 Fair CLR 76.3 71.1 84% 77 30.04 0.0
02 01:55 Calm 10.00 Fair CLR 76.5 71.2 83.7 76.1 84% 77 30.04 0.0
02 01:35 Calm 10.00 Fair CLR 77 71.6 83% 78 30.04 0.0
02 01:15 Calm 10.00 Fair CLR 77 72.3 86% 78 30.04 0.0
02 00:55 Calm 10.00 Fair CLR 77.5 72.7 85% 79 30.04 0.0
02 00:35 Calm 10.00 Fair CLR 77.7 72.3 84% 80 30.04 0.0
02 00:15 Calm 10.00 Fair CLR 77.5 72.1 84% 79 30.03 0.0
01 23:55 Calm 10.00 Fair CLR 77 72.5 86% 78 30.02 0.0
01 23:35 Calm 10.00 Fair CLR 78.1 72 82% 80 30.02 0.0
01 23:15 Calm 10.00 Fair CLR 77.9 72 82% 80 30.02 0.0
01 22:55 Calm 10.00 Fair CLR 77.7 72 83% 80 30.03 0.0
01 22:35 Calm 10.00 Fair CLR 79 72.9 82% 82 30.03 0.0
01 22:15 Calm 10.00 Fair CLR 79 72.3 80% 82 30.02 0.0
01 21:55 Calm 10.00 Fair CLR 79.5 72 78% 83 30.01 0.0
01 21:35 Calm 10.00 Fair CLR 79.7 72 77% 83 30.01 0.0
01 21:15 Calm 10.00 Fair CLR 81 71.6 73% 85 30 0.0
01 20:55 Calm 10.00 Fair CLR 81.5 71.6 72% 86 30 0.0
01 20:35 Calm 10.00 Fair CLR 81.1 72.9 76% 86 30 0.0
01 20:15 Calm 10.00 Fair CLR 82.9 72 70% 88 29.99 0.0
01 19:55 Calm 10.00 Fair CLR 83.8 73.8 96.8 83.8 72% 91 29.99 0.0
01 19:35 Calm 10.00 Fair CLR 85.1 73.6 69% 92 30 0.0
01 19:15 Calm 10.00 Fair CLR 87.1 73.8 65% 95 30 0.0
01 18:55 Calm 10.00 Fair CLR 89.8 72.3 57% 97 30.01 0.0
01 18:35 Calm 10.00 Fair CLR 91 72.9 55% 99 30.01 0.0
01 18:15 Calm 10.00 Fair CLR 94.8 70.3 45% 102 30.01 0.0
01 17:55 Calm 10.00 Fair CLR 95.7 68.5 41% 101 30.01 0.0
01 17:35 Calm 10.00 Fair CLR 96.1 67.1 39% 100 30.01 0.0
01 17:15 Calm 10.00 Fair CLR 96.4 68.2 40% 102 30.01 0.0
01 16:35 SW 3 10.00 Fair CLR 96.4 67.3 39% 101 30.02 0.0
01 16:15 SW 5 10.00 Fair CLR 96.6 66.9 38% 101 30.02 0.0
01 15:55 W 5 10.00 Fair CLR 96.6 66.7 38% 101 30.02 0.0
01 15:35 Calm 10.00 Fair CLR 96.6 66.6 37% 101 30.03 0.0
01 15:15 SW 3 10.00 Fair CLR 96.1 66.7 38% 100 30.03 0.0
01 14:55 W 5 10.00 Fair CLR 96.1 70.2 43% 103 30.03 0.0
01 14:35 Calm 10.00 Fair CLR 95.2 69.3 43% 101 30.04 0.0
01 14:15 Calm 10.00 Fair CLR 94.8 69.8 44% 101 30.04 0.0
01 13:55 NW 3 10.00 Fair CLR 94.1 69.3 94.6 74.5 44% 100 30.04 0.0 0.01
01 13:35 W 3 10.00 Fair CLR 94.6 67.8 42% 99 30.05 0.0
01 13:15 NW 5 10.00 Fair CLR 93.6 70.9 48% 101 30.05 0.0
01 12:55 W 3 10.00 Fair CLR 92.7 73 53% 102 30.06 0.0
01 12:35 Calm 10.00 Fair CLR 91.9 73.9 56% 102 30.06 0.0
01 12:15 Calm 10.00 Fair CLR 91.4 73.4 56% 100 30.07 0.0
01 11:55 Calm 10.00 Fair CLR 90.5 73.8 58% 100 30.07 0.0 0.01
01 11:35 W 3 10.00 Fair CLR 90 74.5 60% 100 30.08 0.0 0.01
01 11:15 Calm 10.00 Fair CLR 88.9 75.7 65% 100 30.09 0.0 0.01
01 10:55 Calm 10.00 Fair CLR 87.3 75.6 68% 97 30.09 0.0
01 10:35 Calm 10.00 Fair CLR 86.7 75.7 70% 97 30.09 0.0
01 10:15 Calm 10.00 Fair CLR 84.7 74.5 71% 93 30.09 0.0
01 09:55 W 3 10.00 Fair CLR 84.2 74.7 73% 92 30.09 0.0
01 09:35 Calm 10.00 Fair CLR 81.9 73.4 76% 87 30.09 0.0
01 09:15 Calm 10.00 Fair CLR 80.6 73.4 79% 85 30.09 0.0
01 08:55 NW 3 10.00 Fair CLR 78.8 72.9 82% 82 30.09 0.0
01 08:35 Calm 10.00 Fair CLR 77.5 72.5 85% 79 30.09 0.0
01 08:15 Calm 10.00 Fair CLR 76.3 72.7 89% 77 30.09 0.0
01 07:55 Calm 7.00 Fair CLR 74.3 72.1 74.3 71.6 93% 30.08 0.0
01 07:35 Calm 7.00 Fair CLR 73.4 71.6 94% 30.07 0.0
01 07:15 Calm 5.00 Fair CLR 71.8 70 94% 30.07 0.0
01 06:55 Calm 5.00 Fair CLR 72.7 70.9 94% 30.07 0.0
01 06:35 Calm 10.00 Fair CLR 72.3 70.3 94% 30.06 0.0
01 06:15 Calm 10.00 Partly Cloudy SCT110 72.1 70.7 95% 30.06 0.0
01 05:55 Calm 10.00 Fair CLR 71.8 70.2 95% 30.06 0.0
01 05:35 Calm 7.00 Fair CLR 72.5 70.7 94% 30.06 0.0
01 05:15 Calm 7.00 Fair CLR 72.5 70.9 95% 30.06 0.0
01 04:55 Calm 7.00 Fair CLR 72.1 70.7 95% 30.06 0.0
01 04:35 Calm 5.00 Fair CLR 72.9 71.2 95% 30.06 0.0
01 04:15 Calm 7.00 Fair CLR 72.7 71.1 95% 30.07 0.0
01 03:55 Calm 4.00 Partly Cloudy SCT095 72.5 70.9 95% 30.07 0.0
01 03:35 Calm 4.00 Fair CLR 72.7 71.1 95% 30.07 0.0
01 03:15 Calm 5.00 Fair CLR 72.5 70.9 95% 30.07 0.0
01 02:55 Calm 4.00 Fair CLR 73.4 71.6 94% 30.07 0.0
01 02:35 Calm 4.00 Fair CLR 73 71.4 95% 30.08 0.0
01 02:15 Calm 5.00 Fair CLR 73.4 71.8 95% 30.09 0.0
01 01:55 Calm 5.00 Fair CLR 73.8 72.1 82.6 73.8 95% 30.09 0.0 0.3
01 01:35 Calm 5.00 Fair CLR 73.9 72.1 94% 30.09 0.0
01 01:15 Calm 3.00 Fair CLR 73.9 72.1 94% 30.1 0.0
01 00:55 Calm 5.00 Fair CLR 74.1 72.3 94% 30.1 0.0
01 00:35 Calm 7.00 Fair CLR 74.3 72.5 94% 30.1 0.0
01 00:15 Calm 10.00 Fair CLR 74.5 72.5 94% 30.1 0.0
31 23:55 Calm 7.00 Partly Cloudy SCT120 74.7 72.7 94% 30.09 0.0
31 23:35 Calm 7.00 Mostly Cloudy BKN120 74.7 72.7 94% 30.09 0.0
31 23:15 Calm 10.00 Fair CLR 74.5 72.7 94% 30.09 0.0
31 22:55 Calm 7.00 Fair CLR 74.3 72.5 94% 30.09 0.0 0.3
31 22:35 Calm 7.00 Partly Cloudy SCT065 74.3 72.5 94% 30.09 0.0
31 22:15 Calm 7.00 Partly Cloudy SCT065 74.5 72.5 94% 30.09 0.0
31 21:55 Calm 5.00 Mostly Cloudy SCT065 SCT100 BKN110 75.2 72.7 92% 74 30.09 0.0 0.3
31 21:35 S 3 7.00 Overcast SCT021 BKN065 OVC100 75.7 72.5 90% 76 30.09 0.0 0.3
31 21:15 SW 3 1.75 Overcast SCT021 BKN031 OVC060 76.8 71.8 85% 78 30.1 0.0 0.25
31 20:55 NW 5 10.00 Overcast BKN060 OVC090 78.3 72.1 82% 81 30.1 0.0
31 20:35 W 3 10.00 Overcast OVC060 81.9 71.1 70% 86 30.09 0.0
31 20:15 W 5 10.00 Overcast OVC060 82 70.9 69% 86 30.07 0.0
31 19:55 Calm 10.00 Overcast OVC060 82 71.6 96.1 81.3 71% 87 30.07 0.0
31 19:35 Calm 10.00 Mostly Cloudy SCT060 SCT075 BKN110 82.2 71.6 70% 87 30.07 0.0
31 19:15 Calm 10.00 Mostly Cloudy SCT060 BKN095 BKN110 83.5 73 71% 90 30.07 0.0
31 18:55 Calm 10.00 Mostly Cloudy SCT095 BKN120 85.1 71.1 63% 90 30.07 0.0
31 18:35 Calm 10.00 Fair CLR 86.9 70.5 58% 92 30.06 0.0
31 18:15 SE 3 10.00 Partly Cloudy SCT060 87.1 69.8 57% 92 30.07 0.0
31 17:55 SE 6 10.00 Partly Cloudy SCT060 87.4 70.3 57% 93 30.07 0.0
31 17:35 E 5 10.00 Fair CLR 87.1 69.4 56% 92 30.07 0.0
31 17:15 E 9 10.00 Partly Cloudy SCT100 91 71.6 53% 98 30.07 0.0
31 16:55 NW 3 10.00 Mostly Cloudy BKN100 92.1 68.9 47% 97 30.07 0.0
31 16:35 NW 3 10.00 Partly Cloudy SCT100 93.7 67.6 42% 98 30.06 0.0
31 16:15 NW 3 10.00 Fair CLR 93.6 67.1 42% 97 30.06 0.0
31 15:55 Calm 10.00 Fair CLR 92.8 68 44% 97 30.07 0.0
31 15:35 W 5 10.00 Partly Cloudy SCT120 95 68 41% 100 30.07 0.0
31 15:15 Calm 10.00 Partly Cloudy SCT120 93.7 65.8 40% 97 30.07 0.0
31 14:55 Calm 10.00 Fair CLR 95 67.1 40% 99 30.08 0.0
31 14:35 W 3 10.00 Fair CLR 95.9 66.2 38% 99 30.09 0.0
31 14:15 Calm 10.00 Fair CLR 95.4 68.7 42% 101 30.09 0.0
31 13:55 S 5 10.00 Fair CLR 94.6 68 94.6 72.5 42% 99 30.09 0.0
31 13:35 Calm 10.00 Fair CLR 93.2 66.6 42% 97 30.1 0.0
31 13:15 Calm 10.00 Fair CLR 92.5 67.6 44% 96 30.1 0.0
31 12:55 S 5 10.00 Fair CLR 92.1 66.9 44% 96 30.11 0.0
31 12:35 W 3 10.00 Fair CLR 91.8 68.7 47% 96 30.11 0.0
31 12:15 Calm 10.00 Fair CLR 90.7 67.6 47% 94 30.12 0.0
31 11:55 W 3 10.00 Fair CLR 90.1 70.3 52% 96 30.13 0.0
31 11:35 NW 3 10.00 Fair CLR 89.2 70.9 55% 95 30.13 0.0
31 11:15 NW 5 10.00 Fair CLR 87.3 70.7 58% 93 30.14 0.0
31 10:35 NW 3 10.00 Fair CLR 85.3 72.1 65% 91 30.14 0.0
31 10:15 SW 5 10.00 Fair CLR 84.4 72.1 67% 90 30.13 0.0
31 09:55 SW 5 10.00 Fair CLR 82.8 72.1 70% 88 30.12 0.0
31 09:35 Calm 10.00 Fair CLR 81.5 71.8 72% 86 30.12 0.0
31 09:15 SW 5 10.00 Fair CLR 79.7 71.8 77% 83 30.13 0.0
31 08:55 SW 3 10.00 Fair CLR 77.2 71.6 83% 79 30.12 0.0
31 08:35 Calm 10.00 Fair CLR 76.6 71.4 84% 78 30.13 0.0
31 08:15 Calm 10.00 Fair CLR 74.8 70.9 88% 30.12 0.0
31 07:55 Calm 10.00 Fair CLR 72.3 70 72.5 69.3 92% 30.12 0.0
31 07:35 Calm 7.00 Partly Cloudy SCT090 70 68.2 94% 30.13 0.0
31 07:15 Calm 7.00 Fair CLR 69.8 68 94% 30.13 0.0
31 06:55 Calm 7.00 Fair CLR 69.8 68 94% 30.12 0.0
31 06:35 Calm 10.00 Partly Cloudy SCT110 70.3 68.2 93% 30.11 0.0
31 06:15 Calm 10.00 Fair CLR 71.4 69.3 93% 30.11 0.0
31 05:55 Calm 10.00 Fair CLR 70.7 69.1 95% 30.11 0.0
31 05:35 Calm 10.00 Partly Cloudy SCT120 69.8 67.8 93% 30.11 0.0
31 05:15 Calm 10.00 Partly Cloudy SCT120 70.3 68.2 93% 30.11 0.0
31 04:55 Calm 10.00 Partly Cloudy SCT120 71.1 68.9 93% 30.11 0.0
31 04:35 Calm 10.00 Partly Cloudy SCT120 70.3 68.5 94% 30.11 0.0
31 04:15 Calm 10.00 Fair CLR 69.4 67.6 94% 30.11 0.0
31 03:55 Calm 10.00 Fair CLR 69.8 67.5 92% 30.12 0.0
31 03:35 Calm 10.00 Partly Cloudy SCT110 70.5 67.8 91% 30.12 0.0
31 03:15 Calm 10.00 Partly Cloudy SCT110 71.8 69.4 92% 30.12 0.0
31 02:55 Calm 10.00 Partly Cloudy SCT110 71.4 68.7 91% 30.12 0.0
31 02:35 Calm 10.00 Fair CLR 72.3 69.8 92% 30.12 0.0
31 02:15 Calm 10.00 Fair CLR 71.6 69.3 92% 30.12 0.0
31 01:55 Calm 10.00 Fair CLR 70.9 68.4 79.9 70.5 92% 30.12 0.0
31 01:35 Calm 10.00 Fair CLR 71.4 69.1 92% 30.12 0.0
31 01:15 Calm 10.00 Fair CLR 71.8 69.1 91% 30.13 0.0
31 00:55 Calm 10.00 Fair CLR 73 69.6 89% 30.14 0.0
31 00:35 Calm 10.00 Fair CLR 72.9 69.4 89% 30.14 0.0
31 00:15 Calm 10.00 Fair CLR 72.3 69.6 91% 30.13 0.0
30 23:55 Calm 10.00 Fair CLR 73 69.4 89% 30.14 0.0
30 23:35 Calm 10.00 Fair CLR 73.4 70 89% 30.14 0.0
30 23:15 Calm 10.00 Fair CLR 73.6 69.8 88% 30.14 0.0
30 22:55 Calm 10.00 Fair CLR 73.8 69.8 88% 30.14 0.0
30 22:35 Calm 10.00 Fair CLR 75.2 70.2 84% 75 30.14 0.0
30 22:15 Calm 10.00 Fair CLR 75.2 70.2 84% 75 30.14 0.0
30 21:55 Calm 10.00 Fair CLR 75.6 70.3 84% 76 30.14 0.0
30 21:35 Calm 10.00 Fair CLR 76.5 70.9 83% 78 30.14 0.0
30 21:15 Calm 10.00 Fair CLR 76.3 70.7 83% 77 30.14 0.0
30 20:55 Calm 10.00 Fair CLR 76.8 70.7 81% 78 30.14 0.0
30 20:35 Calm 10.00 Fair CLR 78.3 71.1 79% 81 30.12 0.0
30 20:15 Calm 10.00 Fair CLR 78.8 71.1 77% 82 30.12 0.0
30 19:55 Calm 10.00 Fair CLR 79.9 71.4 90.9 79.9 75% 83 30.12 0.0
30 19:35 S 3 10.00 Fair CLR 82.8 70 65% 87 30.12 0.0
30 19:15 SW 5 10.00 Fair CLR 85.1 69.6 60% 89 30.12 0.0
30 18:55 S 5 10.00 Fair CLR 87.6 69.4 55% 92 30.12 0.0
30 18:35 S 6 10.00 Fair CLR 88.9 69.1 52% 93 30.12 0.0
30 18:15 SW 5 10.00 Fair CLR 89.2 69.6 52% 94 30.12 0.0
30 17:55 S 6 10.00 Fair CLR 89.6 68.7 50% 94 30.11 0.0
30 17:35 S 5 10.00 Fair CLR 89.4 68.2 50% 93 30.11 0.0
30 17:15 SW 3 10.00 Fair CLR 88.9 67.6 50% 92 30.12 0.0
30 16:55 Calm 10.00 Fair CLR 89.4 67.6 49% 93 30.12 0.0
30 16:35 S 3 10.00 Partly Cloudy SCT043 90.5 67.5 47% 94 30.12 0.0
30 16:15 Calm 10.00 Partly Cloudy SCT043 89.6 68.4 50% 94 30.12 0.0
30 15:55 Calm 10.00 Fair CLR 88.5 68.7 52% 93 30.14 0.0
30 15:35 Calm 10.00 Fair CLR 88.9 68.7 51% 93 30.14 0.0
30 15:15 Calm 10.00 Partly Cloudy SCT039 89.4 69.4 52% 94 30.15 0.0
30 14:55 W 3 10.00 Fair CLR 88.2 68.7 53% 92 30.16 0.0
30 14:35 Calm 10.00 Fair CLR 87.6 68.9 54% 92 30.16 0.0
30 14:15 N 3 10.00 Partly Cloudy SCT034 88.2 69.1 53% 93 30.17 0.0
30 13:55 SW 5 10.00 Mostly Cloudy BKN034 88 70 88 72.5 55% 93 30.18 0.0
30 13:35 SE 6 10.00 Mostly Cloudy BKN034 86.9 69.1 55% 91 30.19 0.0
30 13:15 S 5 10.00 Mostly Cloudy BKN032 87.1 70.2 57% 92 30.19 0.0
30 12:55 Calm 10.00 Mostly Cloudy BKN030 85.5 69.6 59% 90 30.2 0.0
30 12:35 SW 5 10.00 Mostly Cloudy BKN030 85.5 70.3 61% 90 30.2 0.0
30 12:15 Calm 10.00 Partly Cloudy SCT028 SCT034 84.7 69.8 61% 89 30.21 0.0
30 11:55 S 5 10.00 Partly Cloudy SCT023 SCT030 85.1 70.7 62% 90 30.21 0.0
30 11:35 S 5 10.00 Mostly Cloudy BKN023 BKN028 83.3 70.7 66% 88 30.21 0.0
30 11:15 S 3 10.00 Mostly Cloudy BKN023 BKN027 81.9 70.5 69% 86 30.22 0.0
30 10:55 Calm 10.00 Overcast BKN016 OVC027 81.1 71.6 73% 85 30.23 0.0
30 10:35 Calm 10.00 Mostly Cloudy BKN014 BKN019 80.8 71.8 74% 85 30.23 0.0
30 10:15 Calm 10.00 Mostly Cloudy SCT007 BKN012 78.6 71.8 80% 81 30.23 0.0
30 09:55 Calm 10.00 Overcast OVC005 76.8 72.5 87% 78 30.24 0.0
30 09:35 Calm 10.00 Overcast OVC003 75.7 72.3 89% 76 30.24 0.0
Date Time (edt) Wind (mph) Vis. (mi.) Weather Sky Cond. Air Dwpt Max. Min. Relative Humidity Wind Chill (°F) Heat Index (°F) altimeter (in) sea level (mb) 1 hr 3 hr 6 hr
6 hour
Temperature (ºF) Pressure Precipitation (in)